22ème Rallye Terre des Causses
Championnat de France des Rallyes sur Terre
1 1 CUOQ Jean-Marie/GRANDEMANGE Marielle Citroën C4 WRC FA 8W 9:55,8 90km/h 1
2 3 MAURIN Julien/URAL Olivier Citroën DS3 WRC A 8W 10:10,5 +00:14,7 +00:14,7 1
3 11 GILBERT Quentin/JAMOUL Renaud Skoda Fabia R5 R 5 10:23,1 +00:27,3 +00:12,6
4 12 BERFA Jordan/AUGUSTIN Damien HUYNDAI i20 R5 R 5 10:27,4 +00:31,6 +00:04,3 1
5 4 DURBEC Thibault/RENUCCI Jacques-Julien Citroën DS3 WRC A 8W 10:27,8 +00:32,0 +00:00,4 1
6 14 FALCO Jean-Marc/BOUERI Jonathan Peugeot 208 T16 R 5 10:34,8 +00:39,0 +00:07,0 1
7 2 BAUD Lionel/CRAEN Fabien Ford Focus WRC A 8W 10:35,2 +00:39,4 +00:00,4 1
8 9 FERAUD Cyrille/DUCHEMIN Aymeric Citroën C4 WRC FA 8W 10:38,2 +00:42,4 +00:03,0 1
9 19 MORDACQ Arnaud/RATIER Marie-Noelle Mitsubishi Lancer Evo9 N 4 10:47,4 +00:51,6 +00:09,2 1
10 5 CHAYNES Gary/TRIBOUT Christian Citroën C4 WRC FA 8W 10:51,8 +00:56,0 +00:04,4 1
11 18 PONS Xavier/ORIOL Julia Peugeot 208 T16 R 5 10:52,7 +00:56,9 +00:00,9
12 16 PETIT Jean-Eric/MAURIN Mathieu Ford Fiesta R5 R 5 11:05,7 +01:09,9 +00:13,0 1
13 8 RAOUX Jean-Michel/MAGAT Laurent Citroën DS3 WRC A 8W 11:06,3 +01:10,5 +00:00,6 1
14 38 MOREL Jean-Luc/GIDEL Philippe Subaru Impreza WRX FN 4 11:12,7 +01:16,9 +00:06,4
15 7 CLOT Charles/LEON Thierry Ford Fiesta WRC A 8W 11:16,0 +01:20,2 +00:03,3 1
16 61 GAGO Diogo/DEL BARRIO GARCIA Rodolfo Peugeot 208 VTI R 2 11:16,9 +01:21,1 +00:00,9 3
17 35 MORDACQ Laurent/MORTIER Hervé Mitsubishi Lancer Evo9 R 4 11:17,7 +01:21,9 +00:00,8 1
18 70 PINHEIRO Karl-Alexandre/LE FLOCH Franck Peugeot 208 VTI R 2 11:18,3 +01:22,5 +00:00,6 3
19 60 LARIO Taisko/RYYNANEN Sami Peugeot 208 VTI R 2 11:18,9 +01:23,1 +00:00,6 3
20 54 PELLIER Laurent/NEYRET-GIGOT Benoît Peugeot 208 VTI R 2 11:19,6 +01:23,8 +00:00,7 3
21 10 "PIANO"/COTTU Paolo Subaru Impreza WRC FA 8W 11:20,9 +01:25,1 +00:01,3
22 62 SAHILA Aki/SUORSA Rami Peugeot 208 VTI R 2 11:21,3 +01:25,5 +00:00,4 3
23 40 MARTI Christian/LAVIALE Jean-Marc Mitsubishi Lancer Evo9 N 4 11:21,6 +01:25,8 +00:00,3 1
24 57 LLARENA Efren/FERNANDEZ Sara Peugeot 208 VTI R 2 11:21,9 +01:26,1 +00:00,3 3
25 39 BENIER Thomas/PRASSE Cédric Subaru Impreza WRX N 4 11:22,8 +01:27,0 +00:00,9 1
26 27 TARDY Guillaume/CHOUDEY Marc-Emilien Subaru Impreza FA 8 11:23,2 +01:27,4 +00:00,4
27 59 RIBAUD Quentin/BALME Benoît Peugeot 208 VTI R 2 11:23,7 +01:27,9 +00:00,5 1 2 3
28 65 BOSCH Florentin/LAZZARINI Jean-Paul Peugeot 208 VTI R 2 11:27,0 +01:31,2 +00:03,3 3
29 42 CONDAMINES Florian/DELMAS Cyril Subaru Impreza N 4 11:29,5 +01:33,7 +00:02,5
30 6 ROUSSET Eric/GOSSET Jean-David Citroën Xsara WRC FA 8W 11:32,0 +01:36,2 +00:02,5
31 76 COLNEY Thierry/FORTMANN Patrick Citroën DS3 R3 R 3 11:32,4 +01:36,6 +00:00,4 1 2
32 21 GIRAUD Emmanuel/GIRAUD Grégory Mitsubishi Lancer Evo8 FA 8 11:32,8 +01:37,0 +00:00,4
33 52 JULIA David/AUBERTIN Ludovic Peugeot 206 Rc F2 14 11:33,7 +01:37,9 +00:00,9 1 2
34 75 VENTURINI Henri/CORONA Fabrice Peugeot 208 VTI R 2 11:33,7 +01:37,9 3
35 50 VEYRARD Didier/TARDY Vincent Subaru Impreza STI FN 4 11:35,1 +01:39,3 +00:01,4
36 15 BESSON Jean-Pascal/ROISSAC Patrice Skoda Fabia R5 R 5 11:35,1 +01:39,3 1
37 17 FRAU Richard/GASTINEL Jean-Francois Ford Fiesta R5 R 5 11:36,3 +01:40,5 +00:01,2 1
38 68 CUFFI Tommaso/BOSI Massimiliano Peugeot 208 VTI R 2 11:38,5 +01:42,7 +00:02,2 3
39 63 WAGEMANS Joachim/DU PAN Anton Peugeot 208 VTI R 2 11:41,5 +01:45,7 +00:03,0 3
40 124 MASCLAUX Arnaud/CORMERAIS Loïc Renault Clio Ragnotti F2 14 11:42,0 +01:46,2 +00:00,5 1 2
41 100 VATANEN Max/BEURET Mélinda Ford Fiesta R2 R 2 11:42,4 +01:46,6 +00:00,4
42 83 MARCHAL Eddy/JOLE Damien Citroën Saxo T4 FA 6K 11:43,3 +01:47,5 +00:00,9 1
43 64 HAIGH-SMITH Ashley/BURNS Niall Peugeot 208 VTI R 2 11:45,8 +01:50,0 +00:02,5 3
44 20 GAIDOZ Hervé/RICHARD François Subaru Impreza WRX FA 8 11:49,2 +01:53,4 +00:03,4 1
45 103 TEVELLE Cédric/FACCIO Alexandra Peugeot 206 Rc FA 7 11:49,5 +01:53,7 +00:00,3
46 53 VITAL Jean-Pierre/DECOUZON Pierre Citroën Saxo VTS F2 13 11:49,7 +01:53,9 +00:00,2 1 2
47 72 TAVENEAU Sam/POINT Clément Peugeot 208 VTI R 2 11:49,9 +01:54,1 +00:00,2 3
48 41 FONTAINE Fabien/FONTAINE Bastien Mitsubishi Lancer Evo5 FN 4 11:50,2 +01:54,4 +00:00,3
49 66 MAISANO Brandon/PEBEYRE Pierre Peugeot 208 VTI R 2 11:50,2 +01:54,4 3
50 37 DESANGLES Yanis/THERON Nicolas Subaru Impreza WRX R 4 11:51,0 +01:55,2 +00:00,8
51 87 SALGUES Gilles/MOUYSSET Jérôme Citroën Saxo T4 FA 6K 11:51,4 +01:55,6 +00:00,4
52 36 SALIN Daniel/SALIN Brigitte Subaru Impreza WRX R 4 11:51,8 +01:56,0 +00:00,4
53 116 RAYNAUD Gabriel/JULIEN William Seat Ibiza GTI F2 14 11:52,6 +01:56,8 +00:00,8 1 2
54 30 CHIAVARO Daniel/DUPANLOUP Alexandra Subaru Impreza Sti FA 8 11:53,7 +01:57,9 +00:01,1
55 67 JAMET Jérémy/SECACHE Michaël Peugeot 208 VTI R 2 11:55,9 +02:00,1 +00:02,2 3
56 81 VIALLE Lilian/GHIRARDELLO Manuel Renault Clio R3 R 3 11:58,1 +02:02,3 +00:02,2 1 2
57 44 GUIGNARD Eric/MEFFRE Didier Subaru Impreza N 4 11:59,8 +02:04,0 +00:01,7
58 69 AUTIERO Matthieu/ANDREU Axel Peugeot 208 VTI R 2 12:00,8 +02:05,0 +00:01,0 3
59 71 RAMBAUD Sébastien/RICOU Brice Peugeot 208 VTI R 2 12:01,0 +02:05,2 +00:00,2 3
60 80 GUINCHARD Emmanuel/CHATELAIN Mickaël Peugeot 207 Rc R 3 12:03,5 +02:07,7 +00:02,5
61 99 FOTIA Anthony/MILLET Kévin Ford Fiesta R2 R 2 12:06,6 +02:10,8 +00:03,1
62 86 MARCOBAL Thierry/MARCOBAL-BASTIDE Cantin Citroën Saxo T4 FA 6K 12:07,3 +02:11,5 +00:00,7
63 95 GOUY Quentin/THILLIEZ Quentin Citroën C2 R2 R 2 12:07,5 +02:11,7 +00:00,2
64 97 MARGAILLAN Hugo/POUJOL Sébastien Ford Fiesta R2 R 2 12:13,4 +02:17,6 +00:05,9
65 31 MARON-GIRARD Alain/GRENIER Bernard Mitsubishi Lancer Evo9 FA 8 12:14,0 +02:18,2 +00:00,6
66 22 LOPEZ Etienne/MERCIER Marjorie Subaru Impreza WRX FA 8 12:14,1 +02:18,3 +00:00,1
67 73 MOLLARD Alexandre/EYMIN PETOT Nicolas Peugeot 208 VTI R 2 12:15,0 +02:19,2 +00:00,9 3
68 46 LOPEZ Yannick/LOPEZ Brice Subaru Impreza WRX N 4 12:17,2 +02:21,4 +00:02,2
69 89 CREPIN Maude/FRANCOIS Léa Citroën Saxo T4 FA 6K 12:17,4 +02:21,6 +00:00,2
70 43 PUEL Gérard/PUEL Caroline Mitsubishi Lancer Evo8 FN 4 12:20,6 +02:24,8 +00:03,2
71 23 FILLAYRE Jacques/DERRE Cyril Mitsubishi Lancer Evo4 FA 8 12:21,1 +02:25,3 +00:00,5
72 91 BERTON Charlotte/TAILLANDIER Thomas Citroën Saxo T4 FA 6K 12:23,9 +02:28,1 +00:02,8
73 114 BOUZID Lilian/VERGNES Antony Peugeot 306 S16 F2 14 12:24,0 +02:28,2 +00:00,1
74 48 PRIOLO Laurent/DALMAS Yannick Mitsubishi Lancer Evo9 N 4 12:25,0 +02:29,2 +00:01,0
75 132 SABATIER Florent/SANTIAGO Thomas Peugeot 106 S16 FA 6 12:26,7 +02:30,9 +00:01,7 1 2
76 45 ECK Jean-Luc/ECK Aurélien Subaru Impreza N 4 12:26,7 +02:30,9
77 94 JOUINES Jean/CHABBERT Martin Opel Adam Rally R FR2 12:26,9 +02:31,1 +00:00,2
78 111 PILLARD Cédric/NOHARET Laurent Peugeot 206 Rc F2 14 12:27,8 +02:32,0 +00:00,9 1 2
79 47 CAMPAGNOLI Gabriele/ARENA Nicola Subaru Impreza WRX N 4 12:28,0 +02:32,2 +00:00,2
80 78 BOUCHET Guillaume/BLAMPEY Fabien Peugeot 207 Rc R 3 12:30,5 +02:34,7 +00:02,5
81 126 VANTILLARD Jean-Marc/DARRAS Pascaline Peugeot 206 Rc FN 3 12:31,5 +02:35,7 +00:01,0
82 88 QUARROZ Damien/VOLPI Cécile Citroën Saxo T4 FA 6K 12:32,5 +02:36,7 +00:01,0
83 96 PUVERIC Gilles/LE BORGNE Didier Peugeot 208 VTI R 2 12:32,5 +02:36,7
84 98 DEFANTE Romain/TEMPIER Romain Ford Fiesta R2 R 2 12:32,6 +02:36,8 +00:00,1
85 125 BELLIARDO Daniel/BRAQUET Jean-Baptiste Peugeot 306 S16 FN 3 12:33,5 +02:37,7 +00:00,9
86 118 SANHES Yves/SANHES Christine B.M.W. 318i Compact F2 14 12:34,0 +02:38,2 +00:00,5
87 90 COLOMBE Geoffroy/FABREGUE Régis Peugeot 206 XS FA 6K 12:35,1 +02:39,3 +00:01,1
88 149 RICHAUD Pascal/SENDJAKEDINE Mikael Suzuki Swift Sport FN 2 12:36,4 +02:40,6 +00:01,3 1 2
89 134 RALITE Christophe/ABBAL Marie Peugeot 106 S16 FA 6 12:37,7 +02:41,9 +00:01,3
90 145 BRISSON Eddy/MASSON Pascal Suzuki Swift FN 2 12:37,7 +02:41,9
91 102 SOUFFEZ Frédéric/PRUVOST Astrid Peugeot 206 Rc FA 7 12:39,1 +02:43,3 +00:01,4 1 2
92 112 REGORD Hervé/REGORD Camille Peugeot 205 GTI F2 14 12:40,2 +02:44,4 +00:01,1 1 2
93 123 BALMONET/MONICO Celia Peugeot 309 GTI F2 14 12:41,6 +02:45,8 +00:01,4
94 113 BLANCK Lionel/BLANCK Arnaud Peugeot 206 Rc F2 14 12:41,7 +02:45,9 +00:00,1
95 77 DAZY Jean-Pierre/LOIZEAUX Didier Renault Clio R3 R 3 12:43,8 +02:48,0 +00:02,1 1 2
96 117 ROUCOULY Mathieu/GILHODES Jean-Louis Peugeot 309 GTI 16S F2 14 12:49,2 +02:53,4 +00:05,4
97 115 MORARD Philippe/GROLIER Cédric Citroën ZX 16V F2 14 12:52,1 +02:56,3 +00:02,9
98 127 LESCURE Philippe/ESCAICH Bertrand Peugeot 306 S16 FN 3 12:52,4 +02:56,6 +00:00,3
99 150 VAILLE Mickaël/SAVA-LOPEZ Sabrina Peugeot 205 GTI FN 2 12:56,8 +03:01,0 +00:04,4
100 135 RAMEL Olivier/BODENMANN Jacques-Victor Peugeot 106 GT FA 6 12:57,4 +03:01,6 +00:00,6
101 120 RIEU Vincent/DEIXONNE Charles Renault Clio Ragnotti F2 14 12:57,6 +03:01,8 +00:00,2
102 148 LATIEZE Yvan/GOUY Cindy Peugeot 106 S16 FN 2 13:00,2 +03:04,4 +00:02,6
103 133 CHOQUER Mickaël/GROULIER Vincent Peugeot 206 XS FA 6 13:00,4 +03:04,6 +00:00,2
104 92 BRENIAUX Sébastien/JACQUES Anthony Peugeot 206 XS FA 6K 13:02,5 +03:06,7 +00:02,1
105 106 GELLUSSEAU Luc/DEJOUX Charly Peugeot 306 S16 FA 7 13:06,8 +03:11,0 +00:04,3
106 151 ROCHE Ivan/GREVOT Florian Peugeot 106 XSI F2 12 13:09,0 +03:13,2 +00:02,2 1 2
107 122 VIDAL Marc/MONTARON Loïc Peugeot 309 GTI F2 14 13:14,1 +03:18,3 +00:05,1
108 152 VUITTENEZ Victorien/COTE COLISSON Maxime Peugeot 106 XSI FN 1 13:16,2 +03:20,4 +00:02,1
109 140 VAYSSE Adrien/LAURENS Clément Peugeot 106 S16 F2 13 13:17,0 +03:21,2 +00:00,8
110 136 FOURNIER Nicolas/VATTEAU Kévin Peugeot 206 XS F2 13 13:23,7 +03:27,9 +00:06,7
111 146 DOLGOPYATOFF Damien/FRANCOIS Solene Suzuki Swift FN 2 13:27,9 +03:32,1 +00:04,2
112 104 FRELAUT Yohann/CASSAGNADE Pascal Peugeot 206 Rc FA 7 13:31,8 +03:36,0 +00:03,9
113 26 GLEY Jean-Pierre/AUBANEL Aurélien B.M.W. 325 iX FA 8 13:36,6 +03:40,8 +00:04,8
114 142 BRENGUES Jean-Marie/BRENGUES Mélanie Peugeot 205 GTI F2 13 13:36,9 +03:41,1 +00:00,3
115 130 RESSOUCHE Charlotte/BARDOUX Pauline Ford Fiesta ST N 3 13:41,8 +03:46,0 +00:04,9
116 153 CEUGNET Sébastien/LUCON Pascal Peugeot 106 XSI FN 1 13:42,7 +03:46,9 +00:00,9
117 144 TODESCHINI Florent/PORCHERON Giovanni Dacia Logan F2 13 13:45,5 +03:49,7 +00:02,8
118 139 GELY Michel/VALENTIN Cédric Peugeot 206 XS F2 13 13:49,3 +03:53,5 +00:03,8
119 108 GUILLON Jean-Luc/GUILLON Thibault Peugeot 206 GT FA 7 13:57,9 +04:02,1 +00:08,6
120 105 GAUTHIER Bernard/BLANQUET Muriel Peugeot 306 S16 FA 7 14:12,3 +04:16,5 +00:14,4
121 110 CLEMENT Frédéric/COSTES François Peugeot 206 GT F2 14 14:14,3 +04:18,5 +00:02,0 1 2
122 137 RAKOTOMALALA Andry/GORGET Chloé Peugeot 106 S16 F2 13 14:17,7 +04:21,9 +00:03,4
123 154 BES Yves/LE PICHON Christelle Peugeot 106 XR F2 11 14:26,8 +04:31,0 +00:09,1
124 141 PICARD Erick/PONTILLE Hervé Dacia Logan F2 13 14:53,6 +04:57,8 +00:26,8
125 147 DI PAOLO Alain/MORILLON Frederika Peugeot 106 S16 FN 2 15:09,4 +05:13,6 +00:15,8
126 155 SOUBIROUX Vincent/VIGUIE Florian Renault Clio F2 11 15:43,8 +05:48,0 +00:34,4
127 119 MOULIN François/BONNET Dorine Renault Clio RS F2 14 28:19,5 +18:23,7 +12:35,7
Clt Equipage Voiture Gr/Cl Temps Ecart 1er Ecart préc. Catégories
Commentaires: © PatricK Soft  
(Temps forfaitaires=couleur bleue)
Classés:127

Epreuve: Groupe: Catégorie:

 
Retour
Classement ES7-Montsales - La Teulière (15.000 km)